Time;durP1;ratioP1;P1;durP2;ratioP2;P2;SDS_P1;SDS_P2;PMS_P1;PMS_P2;Temp;Humidity;BMP_temperature;BMP_pressure;BME280_temperature;BME280_humidity;BME280_pressure;Samples;Min_cycle;Max_cycle;Signal;HPM_P1;HPM_P2
2021/07/28 00:02:20;0.00;0.00;0.62;0.00;0.00;0.62;5.40;4.03;;;26.60;38.70;;;;;;2265498;61;20358;-55
2021/07/28 00:04:47;0.00;0.00;0.62;0.00;0.00;0.62;5.10;4.60;;;26.50;38.70;;;;;;2264561;61;20377;-57
2021/07/28 00:07:15;0.00;0.00;0.62;0.00;0.00;0.62;4.63;4.23;;;26.50;38.80;;;;;;2265330;61;20350;-54
2021/07/28 00:09:41;0.00;0.00;0.62;0.00;0.00;0.62;4.47;3.93;;;26.50;38.80;;;;;;2265755;61;20581;-56
2021/07/28 00:12:08;0.00;0.00;0.62;0.00;0.00;0.62;7.83;4.20;;;26.50;39.00;;;;;;2264440;61;20354;-55
2021/07/28 00:14:35;0.00;0.00;0.62;0.00;0.00;0.62;5.00;4.20;;;26.50;39.10;;;;;;2265373;61;20378;-54
2021/07/28 00:17:03;0.00;0.00;0.62;0.00;0.00;0.62;3.83;3.47;;;26.40;39.10;;;;;;2265663;61;20804;-55
2021/07/28 00:19:46;0.00;0.00;0.62;0.00;0.00;0.62;6.03;4.60;;;26.40;39.10;;;;;;2264895;61;20738;-56
2021/07/28 00:24:59;0.00;0.00;0.62;0.00;0.00;0.62;6.60;4.80;;;26.40;39.20;;;;;;2265266;61;20389;-53
2021/07/28 00:27:26;0.00;0.00;0.62;0.00;0.00;0.62;4.93;4.47;;;26.40;39.20;;;;;;2265230;61;20364;-56
2021/07/28 00:29:53;0.00;0.00;0.62;0.00;0.00;0.62;7.93;4.10;;;26.40;39.20;;;;;;2265396;61;20580;-54
2021/07/28 00:32:20;0.00;0.00;0.62;0.00;0.00;0.62;8.23;4.40;;;26.40;39.10;;;;;;2265078;61;20357;-59
2021/07/28 00:34:46;0.00;0.00;0.62;0.00;0.00;0.62;5.40;4.67;;;26.30;39.10;;;;;;2265322;61;20415;-54
2021/07/28 00:37:12;0.00;0.00;0.62;0.00;0.00;0.62;7.47;4.73;;;26.30;39.10;;;;;;2264975;61;20358;-53
2021/07/28 00:39:39;0.00;0.00;0.62;0.00;0.00;0.62;4.20;3.77;;;26.30;39.20;;;;;;2265049;61;20381;-56
2021/07/28 00:42:07;0.00;0.00;0.62;0.00;0.00;0.62;5.77;3.83;;;26.30;39.10;;;;;;2265143;61;20369;-54
2021/07/28 00:44:33;0.00;0.00;0.62;0.00;0.00;0.62;5.13;3.97;;;26.30;39.30;;;;;;2265257;61;20610;-58
2021/07/28 00:47:00;0.00;0.00;0.62;0.00;0.00;0.62;5.43;3.77;;;26.30;39.30;;;;;;2265128;61;20682;-55
2021/07/28 00:49:27;0.00;0.00;0.62;0.00;0.00;0.62;7.40;3.70;;;26.20;39.20;;;;;;2265417;61;20713;-56
2021/07/28 00:51:55;0.00;0.00;0.62;0.00;0.00;0.62;6.80;4.00;;;26.20;39.30;;;;;;2265321;61;20354;-56
2021/07/28 00:54:23;0.00;0.00;0.62;0.00;0.00;0.62;6.63;5.27;;;26.20;39.40;;;;;;2265144;61;20376;-55
2021/07/28 00:56:50;0.00;0.00;0.62;0.00;0.00;0.62;5.70;4.10;;;26.20;39.70;;;;;;2265374;61;20589;-52
2021/07/28 00:59:19;0.00;0.00;0.62;0.00;0.00;0.62;8.07;4.27;;;26.10;39.60;;;;;;2265054;61;20793;-53
2021/07/28 01:01:46;0.00;0.00;0.62;0.00;0.00;0.62;4.33;3.70;;;26.10;39.60;;;;;;2265035;61;20354;-57
2021/07/28 01:04:13;0.00;0.00;0.62;0.00;0.00;0.62;8.40;4.90;;;26.10;39.50;;;;;;2265530;61;20773;-57
2021/07/28 01:06:39;0.00;0.00;0.62;0.00;0.00;0.62;4.90;3.93;;;26.00;39.50;;;;;;2266065;61;20358;-55
2021/07/28 01:09:06;0.00;0.00;0.62;0.00;0.00;0.62;7.30;4.30;;;26.00;39.50;;;;;;2266019;61;20350;-56
2021/07/28 01:11:36;0.00;0.00;0.62;0.00;0.00;0.62;4.80;4.00;;;26.00;39.60;;;;;;2265294;61;20366;-56
2021/07/28 01:14:04;0.00;0.00;0.62;0.00;0.00;0.62;4.50;4.10;;;26.00;39.50;;;;;;2265770;61;20756;-56
2021/07/28 01:16:37;0.00;0.00;0.62;0.00;0.00;0.62;4.57;4.00;;;26.10;39.60;;;;;;2266039;61;20385;-55
2021/07/28 01:19:09;0.00;0.00;0.62;0.00;0.00;0.62;4.87;4.43;;;26.10;39.60;;;;;;2265916;61;20602;-57
2021/07/28 01:21:36;0.00;0.00;0.62;0.00;0.00;0.62;4.87;4.00;;;26.10;39.60;;;;;;2265557;61;20415;-55
2021/07/28 01:24:06;0.00;0.00;0.62;0.00;0.00;0.62;5.37;4.10;;;26.20;39.60;;;;;;2265723;61;20374;-52
2021/07/28 01:26:36;0.00;0.00;0.62;0.00;0.00;0.62;4.63;4.13;;;26.20;39.50;;;;;;2262136;61;20408;-53
2021/07/28 01:29:03;0.00;0.00;0.62;0.00;0.00;0.62;3.73;3.43;;;26.20;39.40;;;;;;2265826;61;20350;-57
2021/07/28 01:31:36;0.00;0.00;0.62;0.00;0.00;0.62;7.03;3.83;;;26.20;39.30;;;;;;2265680;61;20743;-57
2021/07/28 01:34:03;0.00;0.00;0.62;0.00;0.00;0.62;5.80;4.37;;;26.30;39.40;;;;;;2265716;61;20389;-56
2021/07/28 01:36:30;0.00;0.00;0.62;0.00;0.00;0.62;6.20;3.87;;;26.30;39.30;;;;;;2265854;61;20364;-57
2021/07/28 01:38:56;0.00;0.00;0.62;0.00;0.00;0.62;5.17;4.67;;;26.30;39.20;;;;;;2265654;61;20354;-56
2021/07/28 01:41:24;0.00;0.00;0.62;0.00;0.00;0.62;5.27;4.77;;;26.30;39.20;;;;;;2265641;61;20362;-54
2021/07/28 01:43:51;0.00;0.00;0.62;0.00;0.00;0.62;5.40;3.50;;;26.20;39.00;;;;;;2265746;61;20397;-58
2021/07/28 01:46:18;0.00;0.00;0.62;0.00;0.00;0.62;5.63;3.63;;;26.20;39.00;;;;;;2265666;61;20915;-52
2021/07/28 01:48:45;0.00;0.00;0.62;0.00;0.00;0.62;6.17;4.20;;;26.20;39.00;;;;;;2265284;61;20703;-55
2021/07/28 01:51:12;0.00;0.00;0.62;0.00;0.00;0.62;4.33;3.90;;;26.20;39.00;;;;;;2265169;61;20393;-58
2021/07/28 01:53:39;0.00;0.00;0.62;0.00;0.00;0.62;4.87;4.00;;;26.20;39.00;;;;;;2265762;61;20382;-55
2021/07/28 01:56:05;0.00;0.00;0.62;0.00;0.00;0.62;7.17;4.57;;;26.10;39.00;;;;;;2265809;61;20354;-52
2021/07/28 01:58:38;0.00;0.00;0.62;0.00;0.00;0.62;6.07;4.10;;;26.10;39.10;;;;;;2265687;61;20403;-56
2021/07/28 02:01:05;0.00;0.00;0.62;0.00;0.00;0.62;5.47;3.70;;;26.00;39.10;;;;;;2265490;61;20378;-57
2021/07/28 02:03:31;0.00;0.00;0.62;0.00;0.00;0.62;6.80;4.10;;;26.00;39.10;;;;;;2265686;61;20355;-56
2021/07/28 02:05:58;0.00;0.00;0.62;0.00;0.00;0.62;7.50;3.70;;;26.00;39.30;;;;;;2265658;61;20715;-54
2021/07/28 02:08:24;0.00;0.00;0.62;0.00;0.00;0.62;6.90;4.00;;;26.00;39.30;;;;;;2265726;61;20425;-57
2021/07/28 02:10:51;0.00;0.00;0.62;0.00;0.00;0.62;7.67;3.57;;;25.90;39.20;;;;;;2265642;61;20395;-53
2021/07/28 02:13:19;0.00;0.00;0.62;0.00;0.00;0.62;5.73;3.50;;;25.90;39.20;;;;;;2265640;61;20357;-58
2021/07/28 02:15:48;0.00;0.00;0.62;0.00;0.00;0.62;5.33;4.60;;;25.90;39.30;;;;;;2265721;61;20358;-55
2021/07/28 02:18:14;0.00;0.00;0.62;0.00;0.00;0.62;6.97;4.30;;;25.90;39.30;;;;;;2265627;61;20570;-56
2021/07/28 02:20:41;0.00;0.00;0.62;0.00;0.00;0.62;4.20;3.73;;;25.90;39.40;;;;;;2265480;61;20721;-53
2021/07/28 02:23:08;0.00;0.00;0.62;0.00;0.00;0.62;4.73;3.57;;;25.90;39.60;;;;;;2265779;61;20453;-57
2021/07/28 02:25:34;0.00;0.00;0.62;0.00;0.00;0.62;7.90;4.63;;;25.80;39.60;;;;;;2265533;61;20449;-53
2021/07/28 02:28:01;0.00;0.00;0.62;0.00;0.00;0.62;6.13;4.60;;;25.80;39.60;;;;;;2265585;61;20358;-57
2021/07/28 02:30:28;0.00;0.00;0.62;0.00;0.00;0.62;5.70;3.80;;;25.80;39.50;;;;;;2266027;61;20342;-55
2021/07/28 02:32:56;0.00;0.00;0.62;0.00;0.00;0.62;5.60;3.60;;;25.80;39.50;;;;;;2265430;61;20358;-55
2021/07/28 02:35:22;0.00;0.00;0.62;0.00;0.00;0.62;3.77;3.37;;;25.70;39.50;;;;;;2265556;61;20377;-55
2021/07/28 02:37:49;0.00;0.00;0.62;0.00;0.00;0.62;3.67;3.37;;;25.70;39.50;;;;;;2265977;61;20587;-57
2021/07/28 02:40:19;0.00;0.00;0.62;0.00;0.00;0.62;5.30;4.30;;;25.70;39.70;;;;;;2265063;61;20382;-56
2021/07/28 02:42:46;0.00;0.00;0.62;0.00;0.00;0.62;6.07;4.30;;;25.70;39.70;;;;;;2265493;61;20690;-55
2021/07/28 02:45:12;0.00;0.00;0.62;0.00;0.00;0.62;7.57;4.27;;;25.70;39.70;;;;;;2265946;61;20381;-57
2021/07/28 02:47:39;0.00;0.00;0.62;0.00;0.00;0.62;4.97;4.20;;;25.60;39.70;;;;;;2265261;61;20411;-53
2021/07/28 02:50:09;0.00;0.00;0.62;0.00;0.00;0.62;7.27;3.80;;;25.60;39.80;;;;;;2265469;61;20354;-54
2021/07/28 02:52:35;0.00;0.00;0.62;0.00;0.00;0.62;4.93;3.67;;;25.60;39.90;;;;;;2265904;61;20694;-55
2021/07/28 02:55:07;0.00;0.00;0.62;0.00;0.00;0.62;10.70;3.80;;;25.50;39.90;;;;;;2265350;61;20607;-57
2021/07/28 02:57:34;0.00;0.00;0.62;0.00;0.00;0.62;6.60;4.40;;;25.50;40.00;;;;;;2265544;61;20361;-53
2021/07/28 03:00:01;0.00;0.00;0.62;0.00;0.00;0.62;6.17;4.40;;;25.50;40.00;;;;;;2265525;61;20392;-57
2021/07/28 03:02:28;0.00;0.00;0.62;0.00;0.00;0.62;5.60;3.87;;;25.50;39.90;;;;;;2265175;61;20393;-55
2021/07/28 03:04:55;0.00;0.00;0.62;0.00;0.00;0.62;7.70;4.20;;;25.50;39.90;;;;;;2265584;61;20377;-55
2021/07/28 03:07:23;0.00;0.00;0.62;0.00;0.00;0.62;4.93;3.47;;;25.50;39.90;;;;;;2265793;61;20380;-54
2021/07/28 03:09:49;0.00;0.00;0.62;0.00;0.00;0.62;5.30;4.00;;;25.40;39.90;;;;;;2264678;61;20357;-55
2021/07/28 03:12:16;0.00;0.00;0.62;0.00;0.00;0.62;7.20;4.30;;;25.40;40.00;;;;;;2265444;61;20358;-50
2021/07/28 03:14:42;0.00;0.00;0.62;0.00;0.00;0.62;6.47;3.80;;;25.40;40.10;;;;;;2265759;61;20385;-56
2021/07/28 03:17:09;0.00;0.00;0.62;0.00;0.00;0.62;7.10;4.27;;;25.40;40.10;;;;;;2265420;61;20439;-56
2021/07/28 03:19:35;0.00;0.00;0.62;0.00;0.00;0.62;4.97;3.80;;;25.30;40.10;;;;;;2265474;61;20387;-56
2021/07/28 03:22:02;0.00;0.00;0.62;0.00;0.00;0.62;7.70;4.17;;;25.30;40.10;;;;;;2265437;61;20617;-52
2021/07/28 03:24:30;0.00;0.00;0.62;0.00;0.00;0.62;7.17;4.30;;;25.30;40.10;;;;;;2265116;61;20658;-53
2021/07/28 03:26:57;0.00;0.00;0.62;0.00;0.00;0.62;4.57;4.17;;;25.20;40.00;;;;;;2265381;61;20617;-57
2021/07/28 03:29:23;0.00;0.00;0.62;0.00;0.00;0.62;4.70;3.67;;;25.20;40.00;;;;;;2265820;61;20380;-54
2021/07/28 03:31:50;0.00;0.00;0.62;0.00;0.00;0.62;5.30;4.17;;;25.20;40.00;;;;;;2265018;61;20346;-51
2021/07/28 03:34:17;0.00;0.00;0.62;0.00;0.00;0.62;4.63;4.07;;;25.20;40.00;;;;;;2265606;61;20377;-54
2021/07/28 03:36:43;0.00;0.00;0.62;0.00;0.00;0.62;5.50;4.10;;;25.20;40.00;;;;;;2265733;61;20354;-53
2021/07/28 03:39:10;0.00;0.00;0.62;0.00;0.00;0.62;6.03;4.27;;;25.10;40.00;;;;;;2264527;61;20508;-53
2021/07/28 03:41:38;0.00;0.00;0.62;0.00;0.00;0.62;5.60;3.50;;;25.20;40.00;;;;;;2265611;61;20421;-51
2021/07/28 03:44:05;0.00;0.00;0.62;0.00;0.00;0.62;4.50;3.23;;;25.20;40.00;;;;;;2265523;61;20722;-53
2021/07/28 03:46:32;0.00;0.00;0.62;0.00;0.00;0.62;5.23;3.87;;;25.10;40.10;;;;;;2265075;61;20694;-55
2021/07/28 03:48:59;0.00;0.00;0.62;0.00;0.00;0.62;5.23;3.27;;;25.20;40.20;;;;;;2265765;61;20358;-55
2021/07/28 03:51:25;0.00;0.00;0.62;0.00;0.00;0.62;4.80;4.10;;;25.20;40.10;;;;;;2265340;61;20393;-55
2021/07/28 03:53:52;0.00;0.00;0.62;0.00;0.00;0.62;5.60;3.73;;;25.20;40.10;;;;;;2264569;61;20702;-57
2021/07/28 03:56:22;0.00;0.00;0.62;0.00;0.00;0.62;7.03;4.30;;;25.20;40.00;;;;;;2265754;61;20372;-55
2021/07/28 03:58:53;0.00;0.00;0.62;0.00;0.00;0.62;4.10;3.70;;;25.20;40.00;;;;;;2265438;61;20358;-56
2021/07/28 04:01:21;0.00;0.00;0.62;0.00;0.00;0.62;4.60;3.50;;;25.20;40.00;;;;;;2264994;61;20412;-57
2021/07/28 04:03:49;0.00;0.00;0.62;0.00;0.00;0.62;7.07;4.40;;;25.20;40.10;;;;;;2265625;61;20388;-52
2021/07/28 04:06:15;0.00;0.00;0.62;0.00;0.00;0.62;4.67;3.77;;;25.20;40.10;;;;;;2265652;61;20578;-54
2021/07/28 04:08:42;0.00;0.00;0.62;0.00;0.00;0.62;5.53;4.47;;;25.20;40.10;;;;;;2265173;61;20429;-54
2021/07/28 04:11:09;0.00;0.00;0.62;0.00;0.00;0.62;5.03;3.47;;;25.20;40.00;;;;;;2265559;61;20566;-57
2021/07/28 04:13:35;0.00;0.00;0.62;0.00;0.00;0.62;8.43;3.97;;;25.30;40.10;;;;;;2265402;61;20382;-54
2021/07/28 04:16:04;0.00;0.00;0.62;0.00;0.00;0.62;5.10;4.00;;;25.30;40.10;;;;;;2265049;61;20350;-53
2021/07/28 04:18:31;0.00;0.00;0.62;0.00;0.00;0.62;6.13;3.80;;;25.30;40.10;;;;;;2265503;61;20408;-53
2021/07/28 04:20:57;0.00;0.00;0.62;0.00;0.00;0.62;6.23;3.53;;;25.40;40.10;;;;;;2265219;61;20461;-54
2021/07/28 04:23:24;0.00;0.00;0.62;0.00;0.00;0.62;6.43;3.70;;;25.40;40.10;;;;;;2264940;61;20707;-54
2021/07/28 04:25:51;0.00;0.00;0.62;0.00;0.00;0.62;7.90;3.73;;;25.40;40.10;;;;;;2265594;61;20365;-52
2021/07/28 04:28:17;0.00;0.00;0.62;0.00;0.00;0.62;4.43;3.80;;;25.50;40.20;;;;;;2264817;61;20358;-56
2021/07/28 04:30:44;0.00;0.00;0.62;0.00;0.00;0.62;4.70;3.00;;;25.50;40.20;;;;;;2264990;61;20443;-52
2021/07/28 04:33:12;0.00;0.00;0.62;0.00;0.00;0.62;4.10;3.53;;;25.50;40.20;;;;;;2265544;61;20350;-58
2021/07/28 04:35:38;0.00;0.00;0.62;0.00;0.00;0.62;6.73;4.67;;;25.60;40.30;;;;;;2261537;61;20382;-53
2021/07/28 04:38:05;0.00;0.00;0.62;0.00;0.00;0.62;6.80;4.47;;;25.60;40.20;;;;;;2264935;61;20354;-57
2021/07/28 04:40:31;0.00;0.00;0.62;0.00;0.00;0.62;5.10;3.50;;;25.60;39.90;;;;;;2265977;61;20389;-56
2021/07/28 04:42:58;0.00;0.00;0.62;0.00;0.00;0.62;5.13;3.80;;;25.60;39.90;;;;;;2266008;61;20364;-53
2021/07/28 04:45:24;0.00;0.00;0.62;0.00;0.00;0.62;6.67;4.27;;;25.50;39.70;;;;;;2265782;61;20457;-52
2021/07/28 04:47:51;0.00;0.00;0.62;0.00;0.00;0.62;9.97;5.00;;;25.60;39.80;;;;;;2266181;61;20360;-54
2021/07/28 04:50:19;0.00;0.00;0.62;0.00;0.00;0.62;5.20;4.50;;;25.50;39.70;;;;;;2265800;61;20377;-55
2021/07/28 04:52:46;0.00;0.00;0.62;0.00;0.00;0.62;7.00;4.50;;;25.50;39.70;;;;;;2265720;61;20366;-55
2021/07/28 04:55:14;0.00;0.00;0.62;0.00;0.00;0.62;5.10;4.60;;;25.50;39.70;;;;;;2266258;61;20400;-58
2021/07/28 04:57:40;0.00;0.00;0.62;0.00;0.00;0.62;6.10;4.70;;;25.40;39.80;;;;;;2266043;61;20576;-56
2021/07/28 05:00:08;0.00;0.00;0.62;0.00;0.00;0.62;10.30;5.47;;;25.40;39.90;;;;;;2265363;61;20722;-53
2021/07/28 05:02:35;0.00;0.00;0.62;0.00;0.00;0.62;7.57;4.50;;;25.40;40.00;;;;;;2266125;61;20589;-51
2021/07/28 05:05:02;0.00;0.00;0.62;0.00;0.00;0.62;5.97;5.37;;;25.40;40.00;;;;;;2265915;61;20418;-56
2021/07/28 05:07:30;0.00;0.00;0.62;0.00;0.00;0.62;6.13;5.20;;;25.30;40.10;;;;;;2265594;61;20480;-53
2021/07/28 05:09:56;0.00;0.00;0.62;0.00;0.00;0.62;6.13;5.00;;;25.30;40.10;;;;;;2266149;61;20382;-52
2021/07/28 05:12:23;0.00;0.00;0.62;0.00;0.00;0.62;6.23;4.67;;;25.20;40.00;;;;;;2265927;61;20361;-57
2021/07/28 05:14:50;0.00;0.00;0.62;0.00;0.00;0.62;7.03;5.60;;;25.20;40.00;;;;;;2265479;61;20599;-59
2021/07/28 05:17:19;0.00;0.00;0.62;0.00;0.00;0.62;7.50;5.03;;;25.20;40.00;;;;;;2266237;61;20354;-55
2021/07/28 05:19:46;0.00;0.00;0.62;0.00;0.00;0.62;5.60;4.93;;;25.20;40.00;;;;;;2265714;61;20377;-50
2021/07/28 05:22:12;0.00;0.00;0.62;0.00;0.00;0.62;7.43;4.80;;;25.20;40.10;;;;;;2264584;61;20366;-55
2021/07/28 05:24:40;0.00;0.00;0.62;0.00;0.00;0.62;6.53;4.80;;;25.10;40.20;;;;;;2265436;61;20394;-57
2021/07/28 05:27:07;0.00;0.00;0.62;0.00;0.00;0.62;6.30;5.17;;;25.10;40.20;;;;;;2265893;61;20437;-56
2021/07/28 05:29:34;0.00;0.00;0.62;0.00;0.00;0.62;9.40;4.60;;;25.10;40.30;;;;;;2265373;61;20602;-56
2021/07/28 05:32:00;0.00;0.00;0.62;0.00;0.00;0.62;8.67;5.20;;;25.10;40.40;;;;;;2265620;61;20401;-55
2021/07/28 05:34:27;0.00;0.00;0.62;0.00;0.00;0.62;7.80;4.20;;;25.10;40.50;;;;;;2265964;61;20377;-58
2021/07/28 05:36:57;0.00;0.00;0.62;0.00;0.00;0.62;5.33;4.60;;;25.10;40.50;;;;;;2265597;61;20680;-56
2021/07/28 05:39:25;0.00;0.00;0.62;0.00;0.00;0.62;9.13;6.03;;;25.10;40.60;;;;;;2265379;61;20406;-56
2021/07/28 05:41:53;0.00;0.00;0.62;0.00;0.00;0.62;5.70;4.10;;;25.10;40.60;;;;;;2265775;61;20366;-57
2021/07/28 05:44:19;0.00;0.00;0.62;0.00;0.00;0.62;12.00;4.90;;;25.10;40.80;;;;;;2265378;61;20463;-57
2021/07/28 05:46:46;0.00;0.00;0.62;0.00;0.00;0.62;5.57;4.90;;;25.10;40.60;;;;;;2265011;61;20365;-60
2021/07/28 05:49:12;0.00;0.00;0.62;0.00;0.00;0.62;5.80;4.77;;;25.10;40.60;;;;;;2265903;61;20713;-57
2021/07/28 05:51:39;0.00;0.00;0.62;0.00;0.00;0.62;7.43;5.17;;;25.10;40.60;;;;;;2265452;61;20358;-56
2021/07/28 05:54:06;0.00;0.00;0.62;0.00;0.00;0.62;6.23;4.23;;;25.10;40.60;;;;;;2265536;61;20440;-59
2021/07/28 05:56:32;0.00;0.00;0.62;0.00;0.00;0.62;9.70;4.30;;;25.10;40.60;;;;;;2265816;61;20373;-58
2021/07/28 05:59:00;0.00;0.00;0.62;0.00;0.00;0.62;6.10;4.90;;;25.10;40.60;;;;;;2264982;61;20350;-55
2021/07/28 06:01:27;0.00;0.00;0.62;0.00;0.00;0.62;5.37;4.43;;;25.10;40.60;;;;;;2265465;61;20465;-56
2021/07/28 06:03:54;0.00;0.00;0.62;0.00;0.00;0.62;5.03;4.53;;;25.10;40.60;;;;;;2265723;61;20370;-55
2021/07/28 06:06:21;0.00;0.00;0.62;0.00;0.00;0.62;6.13;4.70;;;25.10;40.50;;;;;;2265409;61;20354;-59
2021/07/28 06:08:47;0.00;0.00;0.62;0.00;0.00;0.62;4.63;4.23;;;25.10;40.60;;;;;;2265495;61;20354;-58
2021/07/28 06:11:13;0.00;0.00;0.62;0.00;0.00;0.62;8.50;4.60;;;25.10;40.50;;;;;;2265142;61;20755;-60
2021/07/28 06:13:40;0.00;0.00;0.62;0.00;0.00;0.62;6.80;5.10;;;25.00;40.50;;;;;;2264931;61;20417;-54
2021/07/28 06:16:08;0.00;0.00;0.62;0.00;0.00;0.62;6.30;4.80;;;25.00;40.60;;;;;;2265504;61;20698;-58
2021/07/28 06:18:35;0.00;0.00;0.62;0.00;0.00;0.62;5.50;4.80;;;25.00;40.60;;;;;;2265663;61;20358;-57
2021/07/28 06:21:02;0.00;0.00;0.62;0.00;0.00;0.62;7.17;5.10;;;25.10;40.70;;;;;;2265269;61;20385;-58
2021/07/28 06:23:29;0.00;0.00;0.62;0.00;0.00;0.62;5.53;4.43;;;25.00;40.70;;;;;;2265363;61;20372;-59
2021/07/28 06:25:56;0.00;0.00;0.62;0.00;0.00;0.62;14.07;4.73;;;25.00;40.80;;;;;;2265644;61;20454;-50
2021/07/28 06:28:28;0.00;0.00;0.62;0.00;0.00;0.62;6.87;4.80;;;25.00;40.80;;;;;;2265374;61;20357;-59
2021/07/28 06:30:55;0.00;0.00;0.62;0.00;0.00;0.62;5.40;4.20;;;25.00;40.80;;;;;;2264838;61;20357;-60
2021/07/28 06:33:23;0.00;0.00;0.62;0.00;0.00;0.62;5.83;4.93;;;25.00;40.80;;;;;;2265601;61;20452;-60
2021/07/28 06:35:50;0.00;0.00;0.62;0.00;0.00;0.62;4.83;4.17;;;25.00;40.80;;;;;;2265289;61;20441;-57
2021/07/28 06:38:18;0.00;0.00;0.62;0.00;0.00;0.62;6.63;4.67;;;25.00;40.80;;;;;;2265351;61;20361;-55
2021/07/28 06:40:45;0.00;0.00;0.62;0.00;0.00;0.62;6.80;4.83;;;25.00;40.70;;;;;;2265413;61;20440;-55
2021/07/28 06:43:12;0.00;0.00;0.62;0.00;0.00;0.62;4.93;4.43;;;25.10;40.80;;;;;;2265361;61;20358;-57
2021/07/28 06:45:39;0.00;0.00;0.62;0.00;0.00;0.62;6.10;5.50;;;25.10;40.80;;;;;;2265452;61;20374;-56
2021/07/28 06:48:06;0.00;0.00;0.62;0.00;0.00;0.62;4.10;3.63;;;25.10;40.80;;;;;;2265611;61;20388;-57
2021/07/28 06:50:35;0.00;0.00;0.62;0.00;0.00;0.62;5.83;4.77;;;25.10;40.70;;;;;;2265155;61;20350;-58
2021/07/28 06:53:02;0.00;0.00;0.62;0.00;0.00;0.62;5.70;4.50;;;25.10;40.70;;;;;;2265422;61;20368;-56
2021/07/28 06:55:29;0.00;0.00;0.62;0.00;0.00;0.62;6.30;5.10;;;25.10;40.70;;;;;;2265599;61;20466;-59
2021/07/28 06:57:56;0.00;0.00;0.62;0.00;0.00;0.62;6.50;4.90;;;25.10;40.60;;;;;;2265171;61;20710;-56
2021/07/28 07:00:22;0.00;0.00;0.62;0.00;0.00;0.62;5.30;4.77;;;25.10;40.60;;;;;;2265229;61;20627;-56
2021/07/28 07:02:49;0.00;0.00;0.62;0.00;0.00;0.62;5.40;4.90;;;25.10;40.60;;;;;;2265401;61;20350;-58
2021/07/28 07:05:15;0.00;0.00;0.62;0.00;0.00;0.62;6.40;5.00;;;25.20;40.60;;;;;;2265103;61;20373;-58
2021/07/28 07:07:43;0.00;0.00;0.62;0.00;0.00;0.62;5.07;4.50;;;25.20;40.60;;;;;;2265306;61;20405;-59
2021/07/28 07:10:11;0.00;0.00;0.62;0.00;0.00;0.62;6.03;4.80;;;25.20;40.60;;;;;;2265533;61;20361;-59
2021/07/28 07:12:39;0.00;0.00;0.62;0.00;0.00;0.62;5.97;5.37;;;25.20;40.50;;;;;;2265176;61;20365;-54
2021/07/28 07:15:08;0.00;0.00;0.62;0.00;0.00;0.62;7.03;5.03;;;25.20;40.40;;;;;;2265274;61;20699;-61
2021/07/28 07:17:34;0.00;0.00;0.62;0.00;0.00;0.62;4.93;4.43;;;25.20;40.40;;;;;;2265602;61;20601;-52
2021/07/28 07:20:01;0.00;0.00;0.62;0.00;0.00;0.62;5.20;4.70;;;25.20;40.40;;;;;;2264886;61;20605;-56
2021/07/28 07:22:28;0.00;0.00;0.62;0.00;0.00;0.62;5.20;4.70;;;25.20;40.40;;;;;;2265281;61;20559;-52
2021/07/28 07:24:56;0.00;0.00;0.62;0.00;0.00;0.62;8.20;4.60;;;25.20;40.40;;;;;;2265084;61;20374;-54
2021/07/28 07:27:22;0.00;0.00;0.62;0.00;0.00;0.62;6.13;5.53;;;25.20;40.50;;;;;;2265014;61;20365;-54
2021/07/28 07:29:49;0.00;0.00;0.62;0.00;0.00;0.62;5.20;4.70;;;25.20;40.50;;;;;;2265238;61;20392;-55
2021/07/28 07:32:20;0.00;0.00;0.62;0.00;0.00;0.62;5.27;4.37;;;25.20;40.50;;;;;;2265350;61;20360;-56
2021/07/28 07:34:47;0.00;0.00;0.62;0.00;0.00;0.62;5.90;5.30;;;25.20;40.50;;;;;;2265118;61;20374;-58
2021/07/28 07:37:14;0.00;0.00;0.62;0.00;0.00;0.62;9.40;4.73;;;25.20;40.50;;;;;;2265246;61;20358;-60
2021/07/28 07:39:40;0.00;0.00;0.62;0.00;0.00;0.62;6.10;5.50;;;25.20;40.50;;;;;;2265544;61;20369;-59
2021/07/28 07:42:08;0.00;0.00;0.62;0.00;0.00;0.62;6.80;5.60;;;25.20;40.50;;;;;;2265166;61;20354;-58
2021/07/28 07:44:35;0.00;0.00;0.62;0.00;0.00;0.62;7.90;5.93;;;25.20;40.60;;;;;;2265226;61;20388;-56
2021/07/28 07:47:02;0.00;0.00;0.62;0.00;0.00;0.62;5.80;5.10;;;25.20;40.60;;;;;;2265340;61;20365;-57
2021/07/28 07:49:28;0.00;0.00;0.62;0.00;0.00;0.62;6.70;5.20;;;25.20;40.50;;;;;;2264669;61;20400;-55
2021/07/28 07:51:55;0.00;0.00;0.62;0.00;0.00;0.62;6.23;5.60;;;25.30;40.60;;;;;;2265144;61;20358;-58
2021/07/28 07:54:22;0.00;0.00;0.62;0.00;0.00;0.62;7.80;5.23;;;25.20;40.50;;;;;;2265403;61;20370;-54
2021/07/28 07:56:49;0.00;0.00;0.62;0.00;0.00;0.62;6.50;5.40;;;25.30;40.60;;;;;;2265103;61;20702;-57
2021/07/28 07:59:17;0.00;0.00;0.62;0.00;0.00;0.62;5.27;4.77;;;25.30;40.60;;;;;;2265199;61;20354;-59
2021/07/28 08:01:43;0.00;0.00;0.62;0.00;0.00;0.62;6.30;5.50;;;25.30;40.70;;;;;;2265199;61;20373;-57
2021/07/28 08:04:10;0.00;0.00;0.62;0.00;0.00;0.62;6.53;5.83;;;25.30;40.70;;;;;;2265037;61;20433;-59
2021/07/28 08:06:36;0.00;0.00;0.62;0.00;0.00;0.62;5.67;5.07;;;25.30;40.70;;;;;;2265171;61;20450;-56
2021/07/28 08:09:03;0.00;0.00;0.62;0.00;0.00;0.62;5.23;4.60;;;25.30;40.80;;;;;;2265412;61;20353;-59
2021/07/28 08:11:30;0.00;0.00;0.62;0.00;0.00;0.62;6.67;5.80;;;25.30;40.80;;;;;;2264455;61;20709;-55
2021/07/28 08:13:56;0.00;0.00;0.62;0.00;0.00;0.62;5.37;4.87;;;25.30;40.80;;;;;;2265569;61;20385;-57
2021/07/28 08:16:24;0.00;0.00;0.62;0.00;0.00;0.62;6.70;5.13;;;25.30;40.80;;;;;;2266078;61;20438;-61
2021/07/28 08:18:51;0.00;0.00;0.62;0.00;0.00;0.62;6.80;4.93;;;25.30;40.80;;;;;;2265748;61;20559;-59
2021/07/28 08:21:18;0.00;0.00;0.62;0.00;0.00;0.62;5.70;4.50;;;25.30;40.80;;;;;;2265720;61;20385;-59
2021/07/28 08:23:47;0.00;0.00;0.62;0.00;0.00;0.62;5.83;4.67;;;25.30;40.90;;;;;;2265910;61;20664;-57
2021/07/28 08:26:15;0.00;0.00;0.62;0.00;0.00;0.62;5.60;5.10;;;25.30;41.00;;;;;;2265601;61;20721;-54
2021/07/28 08:28:43;0.00;0.00;0.62;0.00;0.00;0.62;5.10;4.50;;;25.30;41.00;;;;;;2262125;61;20577;-57
2021/07/28 08:31:09;0.00;0.00;0.62;0.00;0.00;0.62;6.10;5.07;;;25.30;41.00;;;;;;2265923;61;20357;-53
2021/07/28 08:33:37;0.00;0.00;0.62;0.00;0.00;0.62;7.93;5.30;;;25.30;41.00;;;;;;2265566;61;20425;-53
2021/07/28 08:36:04;0.00;0.00;0.62;0.00;0.00;0.62;7.37;5.93;;;25.30;41.00;;;;;;2265847;61;20369;-59
2021/07/28 08:38:31;0.00;0.00;0.62;0.00;0.00;0.62;7.53;4.53;;;25.30;41.10;;;;;;2266005;61;20382;-53
2021/07/28 08:41:00;0.00;0.00;0.62;0.00;0.00;0.62;5.90;5.27;;;25.30;41.10;;;;;;2265415;61;20381;-60
2021/07/28 08:43:29;0.00;0.00;0.62;0.00;0.00;0.62;5.60;5.03;;;25.40;41.10;;;;;;2265312;61;20354;-59
2021/07/28 08:45:59;0.00;0.00;0.62;0.00;0.00;0.62;5.57;5.07;;;25.40;41.20;;;;;;2266026;61;20357;-56
2021/07/28 08:48:27;0.00;0.00;0.62;0.00;0.00;0.62;5.50;5.00;;;25.30;41.10;;;;;;2265663;61;20350;-58
2021/07/28 08:50:55;0.00;0.00;0.62;0.00;0.00;0.62;5.87;5.03;;;25.30;41.10;;;;;;2265227;61;20365;-57
2021/07/28 08:53:22;0.00;0.00;0.62;0.00;0.00;0.62;5.70;5.10;;;25.40;41.20;;;;;;2265949;61;20358;-55
2021/07/28 08:55:52;0.00;0.00;0.62;0.00;0.00;0.62;6.40;5.80;;;25.40;41.30;;;;;;2265561;61;20361;-60
2021/07/28 08:58:22;0.00;0.00;0.62;0.00;0.00;0.62;5.93;5.10;;;25.40;41.30;;;;;;2265153;61;20357;-58
2021/07/28 09:00:50;0.00;0.00;0.62;0.00;0.00;0.62;6.03;5.03;;;25.40;41.30;;;;;;2265793;61;20385;-59
2021/07/28 09:03:17;0.00;0.00;0.62;0.00;0.00;0.62;7.53;4.90;;;25.40;41.30;;;;;;2265605;61;20694;-59
2021/07/28 09:05:47;0.00;0.00;0.62;0.00;0.00;0.62;6.00;5.40;;;25.40;41.30;;;;;;2265674;61;20374;-57
2021/07/28 09:08:26;0.00;0.00;0.62;0.00;0.00;0.62;6.40;5.60;;;25.40;41.30;;;;;;2265991;61;20357;-58
2021/07/28 09:10:55;0.00;0.00;0.62;0.00;0.00;0.62;6.27;4.83;;;25.40;41.20;;;;;;2265583;61;20354;-56
2021/07/28 09:13:30;0.00;0.00;0.62;0.00;0.00;0.62;6.50;5.90;;;25.50;41.20;;;;;;2265597;61;20366;-54
2021/07/28 09:16:00;0.00;0.00;0.62;0.00;0.00;0.62;10.00;6.40;;;25.50;41.20;;;;;;2265911;61;20582;-56
2021/07/28 09:18:29;0.00;0.00;0.62;0.00;0.00;0.62;6.37;5.77;;;25.50;41.10;;;;;;2265523;61;20357;-59
2021/07/28 09:20:56;0.00;0.00;0.62;0.00;0.00;0.62;5.27;4.77;;;25.50;41.00;;;;;;2265484;61;20381;-58
2021/07/28 09:23:33;0.00;0.00;0.62;0.00;0.00;0.62;6.10;5.57;;;25.50;41.00;;;;;;2265780;61;20377;-55
2021/07/28 09:26:04;0.00;0.00;0.62;0.00;0.00;0.62;6.93;6.23;;;25.50;41.00;;;;;;2265372;61;20414;-57
2021/07/28 09:28:32;0.00;0.00;0.62;0.00;0.00;0.62;5.57;5.07;;;25.50;41.00;;;;;;2265688;61;20746;-59
2021/07/28 09:30:59;0.00;0.00;0.62;0.00;0.00;0.62;7.67;6.10;;;25.50;41.00;;;;;;2265706;61;20354;-58
2021/07/28 09:33:26;0.00;0.00;0.62;0.00;0.00;0.62;6.37;5.80;;;25.50;40.90;;;;;;2265596;61;20403;-60
2021/07/28 09:36:15;0.00;0.00;0.62;0.00;0.00;0.62;6.20;5.53;;;25.60;41.00;;;;;;2265599;61;20358;-58
2021/07/28 09:38:45;0.00;0.00;0.62;0.00;0.00;0.62;5.37;4.87;;;25.60;40.80;;;;;;2265892;61;20670;-55
2021/07/28 09:41:19;0.00;0.00;0.62;0.00;0.00;0.62;5.47;4.97;;;25.60;40.80;;;;;;2265262;61;20457;-56
2021/07/28 09:43:48;0.00;0.00;0.62;0.00;0.00;0.62;5.93;5.40;;;25.60;40.80;;;;;;2265750;61;20450;-57
2021/07/28 09:46:29;0.00;0.00;0.62;0.00;0.00;0.62;7.67;6.27;;;25.60;40.70;;;;;;2265323;61;20591;-56